Pisek, ND (58273)

9:01 PM CDT on August 28, 2016 (GMT -0500)
Forest River Farms | | Change Station

Elev 876 ft 48.17 °N, 97.47 °W | Updated 8 minutes ago

Mostly Cloudy
Mostly Cloudy
75.6 °F
Feels Like 76 °F
N
0.0
Wind Variable Wind from ESE

Today
High -- | Low -- °F
--% Chance of Precip.
Yesterday
High -- | Low -- °F
Precip. -- in
Pressure 29.93 in
Visibility 10.0 miles
Clouds Mostly Cloudy 3900 ft
Heat Index 76 °F
Dew Point 70 °F
Humidity 83%
Rainfall 0.00 in
Snow Depth Not available.
6:43 AM 8:19 PM
Waning Crescent, 12% visible
METAR KGAF 290155Z AUTO 11006KT 10SM BKN039 23/22 A2993 RMK AO2 LTG DSNT SE
Pressure 29.93 in
Visibility 10.0 miles
Clouds Mostly Cloudy 3900 ft
Heat Index 76 °F
Dew Point 70 °F
Humidity 83%
Rainfall 0.00 in
Snow Depth Not available.
6:43 AM 8:19 PM
Waning Crescent, 12% visible
METAR KGAF 290155Z AUTO 11006KT 10SM BKN039 23/22 A2993 RMK AO2 LTG DSNT SE

10-Day Weather Forecast

Almanac

Astronomy

Aug. 28, 2016 Rise Set
Actual Time
Civil Twilight
Nautical Twilight
Astronomical Twilight
Moon
Length of Visible Light
Length of Day
Tomorrow will be .
, % of the Moon is Illuminated

Today's Extremes

State Highs State Lows

Community

WunderPhotos

Upload Photos

1,935,768 photos uploaded!

WunderBlog® & News

Nearby

Air Quality

  Air Quality AQ Index Pollutant
Not available.

Snow Depth

Station Depth Elevation

Earthquake Activity

City Distance Mag. Time & Date
Minimum magnitude displayed is 2.5.

Coastal Water Temperatures

Place Temperature

Stations

Nearby Weather Stations

Station Location Temp. Windchill Dew Point Humidity Wind Precip. Elev Updated Type
                   

Watches & Warnings

There are currently no watches in effect.